Time;durP1;ratioP1;P1;durP2;ratioP2;P2;SDS_P1;SDS_P2;PMS_P1;PMS_P2;Temp;Humidity;BMP_temperature;BMP_pressure;BME280_temperature;BME280_humidity;BME280_pressure;Samples;Min_cycle;Max_cycle;Signal;HPM_P1;HPM_P2
2022/05/26 00:00:54;;;;;;;31.25;7.07;;;14.10;99.90;;;;;;4962454;28;20432;-71
2022/05/26 00:03:19;;;;;;;28.63;6.68;;;14.10;99.90;;;;;;4961577;28;20129;-70
2022/05/26 00:05:45;;;;;;;33.55;7.35;;;14.10;99.90;;;;;;4961766;28;20055;-71
2022/05/26 00:08:11;;;;;;;32.95;7.28;;;14.10;99.90;;;;;;4947859;28;20051;-71
2022/05/26 00:10:43;;;;;;;35.72;7.28;;;14.10;99.90;;;;;;4961586;28;20412;-71
2022/05/26 00:13:09;;;;;;;30.05;8.15;;;14.00;99.90;;;;;;4963452;28;20082;-71
2022/05/26 00:15:34;;;;;;;33.97;7.60;;;14.00;99.90;;;;;;4961956;28;20439;-71
2022/05/26 00:18:00;;;;;;;39.75;7.82;;;14.00;99.90;;;;;;4963355;28;20065;-71
2022/05/26 00:20:26;;;;;;;33.78;8.05;;;14.10;99.90;;;;;;4962920;28;20766;-71
2022/05/26 00:22:52;;;;;;;31.88;8.30;;;14.00;99.90;;;;;;4962913;28;20140;-71
2022/05/26 00:25:17;;;;;;;33.22;7.38;;;14.00;99.90;;;;;;4963487;28;20046;-71
2022/05/26 00:27:43;;;;;;;34.63;7.80;;;14.00;99.90;;;;;;4960083;28;20097;-71
2022/05/26 00:30:09;;;;;;;31.63;7.60;;;14.00;99.90;;;;;;4959090;28;20043;-71
2022/05/26 00:32:35;;;;;;;33.83;8.10;;;14.00;99.90;;;;;;4963994;28;20038;-71
2022/05/26 00:35:01;;;;;;;34.50;8.15;;;13.90;99.90;;;;;;4965432;28;20054;-71
2022/05/26 00:37:26;;;;;;;34.88;7.53;;;13.90;99.90;;;;;;4965478;28;20413;-71
2022/05/26 00:39:52;;;;;;;34.10;8.00;;;13.90;99.90;;;;;;4964735;28;20055;-71
2022/05/26 00:42:18;;;;;;;40.90;8.13;;;13.80;99.90;;;;;;4967734;28;20042;-71
2022/05/26 00:44:44;;;;;;;32.70;7.70;;;13.80;99.90;;;;;;4967635;28;20054;-71
2022/05/26 00:47:15;;;;;;;42.92;9.15;;;13.80;99.90;;;;;;4965027;28;20042;-71
2022/05/26 00:49:47;;;;;;;31.90;7.78;;;13.70;99.90;;;;;;4963690;28;20065;-70
2022/05/26 00:52:21;;;;;;;38.47;7.85;;;13.70;99.90;;;;;;4975791;28;20135;-70
2022/05/26 00:54:50;;;;;;;38.58;8.10;;;13.70;99.90;;;;;;4972928;28;20098;-70
2022/05/26 00:57:24;;;;;;;40.05;8.05;;;13.70;99.90;;;;;;4968543;28;20050;-70
2022/05/26 01:00:01;;;;;;;35.85;7.45;;;13.70;99.90;;;;;;4972284;28;20160;-70
2022/05/26 01:02:35;;;;;;;46.30;8.77;;;13.70;99.90;;;;;;4970913;28;20046;-70
2022/05/26 01:05:07;;;;;;;36.75;8.05;;;13.70;99.90;;;;;;4953120;28;20062;-70
2022/05/26 01:07:36;;;;;;;42.95;8.20;;;13.70;99.90;;;;;;4971380;28;20035;-70
2022/05/26 01:10:10;;;;;;;34.67;8.02;;;13.70;99.90;;;;;;4967670;28;20062;-70
2022/05/26 01:12:50;;;;;;;35.53;7.97;;;13.80;99.90;;;;;;4971776;28;20078;-71
2022/05/26 01:15:19;;;;;;;42.97;9.35;;;13.80;99.90;;;;;;4971347;28;20049;-70
2022/05/26 01:18:06;;;;;;;41.70;8.63;;;13.80;99.90;;;;;;4950369;28;20038;-70
2022/05/26 01:20:47;;;;;;;35.63;7.25;;;13.80;99.90;;;;;;4964178;28;20105;-70
2022/05/26 01:23:31;;;;;;;37.22;6.57;;;13.80;99.90;;;;;;4984089;28;20569;-70
2022/05/26 01:26:34;;;;;;;34.00;7.10;;;13.80;99.90;;;;;;4970482;28;20051;-71
2022/05/26 01:29:38;;;;;;;34.80;6.85;;;13.70;99.90;;;;;;4972283;28;20106;-70
2022/05/26 01:32:08;;;;;;;33.58;7.32;;;13.70;99.90;;;;;;4967942;28;20051;-71
2022/05/26 01:34:52;;;;;;;29.50;6.10;;;13.70;99.90;;;;;;4969566;28;20043;-71
2022/05/26 01:37:52;;;;;;;31.85;6.18;;;13.80;99.90;;;;;;4970619;28;20046;-70
2022/05/26 01:40:48;;;;;;;34.30;6.30;;;13.80;99.90;;;;;;4948953;28;20085;-71
2022/05/26 01:43:16;;;;;;;38.97;7.10;;;13.70;99.90;;;;;;4971031;28;20313;-70
2022/05/26 01:46:09;;;;;;;34.40;8.07;;;13.70;99.90;;;;;;4953772;28;20046;-71
2022/05/26 01:48:56;;;;;;;38.25;7.47;;;13.70;99.90;;;;;;4966903;28;20050;-71
2022/05/26 01:51:38;;;;;;;34.80;6.95;;;13.70;99.90;;;;;;4967174;28;20463;-70
2022/05/26 01:54:19;;;;;;;35.40;7.15;;;13.70;99.90;;;;;;4954722;28;20057;-70
2022/05/26 01:57:04;;;;;;;42.03;7.28;;;13.70;99.90;;;;;;4969574;28;20035;-70
2022/05/26 01:59:46;;;;;;;38.53;7.15;;;13.70;99.90;;;;;;4968314;28;20106;-70
2022/05/26 02:02:18;;;;;;;36.83;7.45;;;13.70;99.90;;;;;;4977651;28;20360;-70
2022/05/26 02:04:52;;;;;;;36.70;7.10;;;13.70;99.90;;;;;;4958947;28;20062;-71
2022/05/26 02:07:38;;;;;;;35.60;7.10;;;13.70;99.90;;;;;;4962481;28;20034;-70
2022/05/26 02:10:15;;;;;;;40.92;7.00;;;13.70;99.90;;;;;;4960164;28;20118;-70
2022/05/26 02:13:03;;;;;;;32.58;6.40;;;13.70;99.90;;;;;;4974831;28;20154;-70
2022/05/26 02:15:41;;;;;;;27.35;6.82;;;13.70;99.90;;;;;;4962449;28;20049;-70
2022/05/26 02:18:25;;;;;;;32.00;7.95;;;13.60;99.90;;;;;;4943711;28;20469;-70
2022/05/26 02:21:09;;;;;;;29.55;5.53;;;13.60;99.90;;;;;;4964741;28;20051;-71
2022/05/26 02:23:45;;;;;;;34.33;6.25;;;13.50;99.90;;;;;;4961254;28;20040;-70
2022/05/26 02:26:13;;;;;;;33.15;5.82;;;13.50;99.90;;;;;;4961573;28;20130;-70
2022/05/26 02:31:27;;;;;;;30.67;6.20;;;13.50;99.90;;;;;;4958426;28;20047;-71
2022/05/26 02:33:57;;;;;;;32.60;6.50;;;13.40;99.90;;;;;;4961226;28;20047;-71
2022/05/26 02:36:24;;;;;;;25.58;5.47;;;13.50;99.90;;;;;;4963371;28;20062;-71
2022/05/26 02:38:49;;;;;;;29.85;5.47;;;13.40;99.90;;;;;;4966991;28;20508;-71
2022/05/26 02:41:16;;;;;;;30.20;5.70;;;13.50;99.90;;;;;;4956623;28;20059;-71
2022/05/26 02:43:42;;;;;;;24.90;6.07;;;13.40;99.90;;;;;;4958420;28;20703;-71
2022/05/26 02:46:32;;;;;;;31.85;6.45;;;13.30;99.90;;;;;;4963515;28;20069;-71
2022/05/26 02:49:21;;;;;;;30.08;7.25;;;13.30;99.90;;;;;;4957324;28;20443;-71
2022/05/26 02:51:54;;;;;;;41.00;7.75;;;13.20;99.90;;;;;;4960798;28;20047;-71
2022/05/26 02:54:20;;;;;;;33.90;7.80;;;13.20;99.90;;;;;;4956355;28;20057;-71
2022/05/26 02:57:11;;;;;;;37.55;7.40;;;13.30;99.90;;;;;;4958032;28;20043;-70
2022/05/26 02:59:49;;;;;;;38.83;7.80;;;13.10;99.90;;;;;;4965153;28;20039;-71
2022/05/26 03:02:32;;;;;;;32.28;7.60;;;13.10;99.90;;;;;;4967554;28;20043;-70
2022/05/26 03:05:07;;;;;;;36.72;7.05;;;13.00;99.90;;;;;;4965113;28;20121;-70
2022/05/26 03:07:37;;;;;;;29.90;6.57;;;13.00;99.90;;;;;;4967115;28;20460;-70
2022/05/26 03:10:15;;;;;;;33.43;6.47;;;13.10;99.90;;;;;;4966084;28;20043;-71
2022/05/26 03:12:56;;;;;;;35.42;5.95;;;13.00;99.90;;;;;;4966000;28;20877;-71
2022/05/26 03:15:22;;;;;;;25.55;5.28;;;13.10;99.90;;;;;;4949802;28;20034;-71
2022/05/26 03:17:48;;;;;;;24.05;4.72;;;13.00;99.90;;;;;;4967206;28;20046;-70
2022/05/26 03:20:14;;;;;;;24.42;4.57;;;12.90;99.90;;;;;;4967116;28;20561;-71
2022/05/26 03:22:40;;;;;;;18.77;3.85;;;13.00;99.90;;;;;;4965053;28;20050;-70
2022/05/26 03:25:06;;;;;;;20.40;4.78;;;13.00;99.90;;;;;;4968654;28;20042;-71
2022/05/26 03:27:33;;;;;;;19.42;3.60;;;13.00;99.90;;;;;;4967434;28;20058;-70
2022/05/26 03:29:59;;;;;;;17.02;3.40;;;13.00;99.90;;;;;;4967113;28;20047;-70
2022/05/26 03:32:25;;;;;;;19.52;3.30;;;12.90;99.90;;;;;;4965556;28;20069;-71
2022/05/26 03:43:07;;;;;;;14.93;2.47;;;12.90;99.90;;;;;;4962491;28;20117;-71
2022/05/26 03:45:34;;;;;;;19.08;3.03;;;12.90;99.90;;;;;;4966859;28;20455;-70
2022/05/26 03:48:01;;;;;;;15.80;3.30;;;12.90;99.90;;;;;;4951960;28;20070;-71
2022/05/26 03:50:27;;;;;;;15.23;2.50;;;12.90;99.90;;;;;;4967216;28;20077;-71
2022/05/26 03:52:54;;;;;;;14.82;2.40;;;12.80;99.90;;;;;;4965289;28;20565;-71
2022/05/26 03:55:24;;;;;;;14.55;2.05;;;12.80;99.90;;;;;;4968913;28;20558;-71
2022/05/26 03:57:50;;;;;;;10.15;2.30;;;12.80;99.90;;;;;;4966154;28;20439;-71
2022/05/26 04:00:24;;;;;;;13.02;2.22;;;12.80;99.90;;;;;;4966358;28;20134;-70
2022/05/26 04:02:51;;;;;;;13.80;2.53;;;12.80;99.90;;;;;;4949612;28;20042;-71
2022/05/26 04:05:17;;;;;;;12.00;2.13;;;12.80;99.90;;;;;;4968431;28;20117;-71
2022/05/26 04:07:43;;;;;;;8.65;2.13;;;12.80;99.90;;;;;;4966530;28;20057;-71
2022/05/26 04:10:17;;;;;;;15.40;2.67;;;12.80;99.90;;;;;;4966402;28;20416;-70
2022/05/26 04:12:49;;;;;;;8.82;1.83;;;12.80;99.90;;;;;;4956718;28;20408;-71
2022/05/26 04:15:17;;;;;;;13.27;2.42;;;12.90;99.90;;;;;;4967409;28;20548;-70
2022/05/26 04:17:42;;;;;;;16.70;2.53;;;12.90;99.90;;;;;;4944364;28;20042;-70
2022/05/26 04:20:11;;;;;;;10.70;1.77;;;12.90;99.90;;;;;;4968122;28;20042;-71
2022/05/26 04:22:37;;;;;;;9.40;1.67;;;12.90;99.90;;;;;;4966283;28;20113;-71
2022/05/26 04:25:03;;;;;;;10.90;2.10;;;12.90;99.90;;;;;;4967458;28;20039;-71
2022/05/26 04:27:31;;;;;;;12.18;2.17;;;12.90;99.90;;;;;;4965307;28;20505;-71
2022/05/26 04:29:58;;;;;;;8.60;1.70;;;12.90;99.90;;;;;;4949305;28;20408;-72
2022/05/26 04:32:25;;;;;;;9.77;1.90;;;13.50;99.90;;;;;;4965159;28;20130;-70
2022/05/26 04:34:52;;;;;;;9.57;2.30;;;14.80;99.90;;;;;;4967747;28;20066;-71
2022/05/26 04:37:19;;;;;;;10.70;2.05;;;16.20;99.90;;;;;;4964671;28;20043;-71
2022/05/26 04:39:45;;;;;;;10.80;1.75;;;17.40;99.90;;;;;;4949823;28;20516;-71
2022/05/26 04:42:11;;;;;;;10.32;1.95;;;18.60;99.90;;;;;;4964364;28;20078;-70
2022/05/26 04:44:40;;;;;;;8.77;2.00;;;19.50;99.90;;;;;;4966811;28;20046;-71
2022/05/26 04:47:06;;;;;;;12.10;1.60;;;20.20;99.90;;;;;;4967845;28;20078;-71
2022/05/26 04:49:32;;;;;;;8.82;1.60;;;21.00;99.90;;;;;;4951078;28;20098;-71
2022/05/26 04:51:58;;;;;;;11.85;2.00;;;21.70;99.90;;;;;;4963123;28;20050;-71
2022/05/26 04:54:25;;;;;;;9.63;2.03;;;22.40;99.90;;;;;;4963590;28;20500;-71
2022/05/26 04:56:55;;;;;;;9.15;1.92;;;23.00;99.90;;;;;;4966165;28;20097;-71
2022/05/26 04:59:22;;;;;;;9.75;1.38;;;23.70;99.90;;;;;;4965037;28;20058;-71
2022/05/26 05:01:47;;;;;;;5.93;1.35;;;24.10;99.90;;;;;;4946142;28;20050;-71
2022/05/26 05:04:13;;;;;;;6.53;1.33;;;24.60;99.90;;;;;;4965102;28;20047;-71
2022/05/26 05:06:38;;;;;;;9.85;1.92;;;24.90;99.90;;;;;;4963062;28;20098;-71
2022/05/26 05:09:04;;;;;;;5.97;1.60;;;25.30;99.90;;;;;;4961497;28;20047;-71
2022/05/26 05:11:43;;;;;;;7.50;1.85;;;25.70;99.90;;;;;;4966419;28;20500;-72
2022/05/26 05:14:09;;;;;;;9.57;1.58;;;25.90;99.90;;;;;;4965616;28;20059;-71
2022/05/26 05:16:44;;;;;;;7.35;1.40;;;26.20;99.90;;;;;;4950458;28;20485;-71
2022/05/26 05:19:16;;;;;;;8.50;1.48;;;26.50;99.90;;;;;;4963587;28;20401;-71
2022/05/26 05:21:57;;;;;;;7.90;1.60;;;25.60;99.90;;;;;;4965914;28;20042;-70
2022/05/26 05:24:28;;;;;;;8.52;1.48;;;24.00;99.90;;;;;;4949774;28;20641;-70
2022/05/26 05:27:01;;;;;;;10.27;1.77;;;22.40;99.90;;;;;;4955128;28;20535;-71
2022/05/26 05:29:36;;;;;;;6.78;1.38;;;21.40;99.90;;;;;;4963033;28;20574;-70
2022/05/26 05:32:13;;;;;;;11.32;1.95;;;20.40;99.90;;;;;;4966383;28;20264;-71
2022/05/26 05:34:46;;;;;;;11.27;1.70;;;19.60;99.90;;;;;;4946238;28;20051;-71
2022/05/26 05:37:11;;;;;;;9.60;1.67;;;18.80;99.90;;;;;;4963506;28;20416;-70
2022/05/26 05:39:37;;;;;;;9.60;1.85;;;18.30;99.90;;;;;;4943421;28;20109;-70
2022/05/26 05:42:04;;;;;;;12.15;2.20;;;17.70;99.90;;;;;;4960238;28;20614;-70
2022/05/26 05:44:31;;;;;;;11.68;2.00;;;17.40;99.90;;;;;;4957895;28;20047;-71
2022/05/26 05:47:01;;;;;;;8.15;1.50;;;17.10;99.90;;;;;;4955949;28;20036;-71
2022/05/26 05:49:30;;;;;;;8.63;1.90;;;16.80;99.90;;;;;;4958114;28;20058;-71
2022/05/26 05:52:02;;;;;;;7.07;1.48;;;16.50;99.90;;;;;;4968374;28;20116;-71
2022/05/26 05:54:30;;;;;;;12.35;1.80;;;16.40;99.90;;;;;;4955971;28;20069;-70
2022/05/26 05:56:56;;;;;;;7.05;1.40;;;16.10;99.90;;;;;;4954749;28;20059;-71
2022/05/26 05:59:22;;;;;;;12.43;1.73;;;16.00;99.90;;;;;;4942472;28;20089;-71
2022/05/26 06:01:47;;;;;;;14.15;1.80;;;15.80;99.90;;;;;;4956681;28;20051;-71
2022/05/26 06:04:13;;;;;;;10.27;2.05;;;15.70;99.90;;;;;;4958384;28;20057;-70
2022/05/26 06:06:42;;;;;;;11.95;1.38;;;15.70;99.90;;;;;;4953147;28;20489;-70
2022/05/26 06:09:16;;;;;;;11.65;2.15;;;15.60;99.90;;;;;;4954980;28;20126;-70
2022/05/26 06:11:55;;;;;;;10.13;1.27;;;15.50;99.90;;;;;;4942586;28;20114;-70
2022/05/26 06:14:22;;;;;;;9.05;1.67;;;15.50;99.90;;;;;;4969583;28;20047;-70
2022/05/26 06:16:47;;;;;;;10.82;1.65;;;15.40;99.90;;;;;;4953782;28;20047;-70
2022/05/26 06:19:13;;;;;;;6.57;1.15;;;15.60;99.90;;;;;;4953615;28;20042;-71
2022/05/26 06:21:40;;;;;;;12.60;2.03;;;16.10;99.90;;;;;;4975950;28;20149;-70
2022/05/26 06:24:06;;;;;;;7.97;1.30;;;16.30;99.90;;;;;;4970575;28;20408;-70
2022/05/26 06:26:31;;;;;;;8.27;1.45;;;16.20;99.90;;;;;;4973625;28;20513;-70
2022/05/26 06:37:13;;;;;;;12.82;2.28;;;16.30;99.90;;;;;;4953486;28;20075;-71
2022/05/26 06:37:16;;;;;;;11.40;1.35;;;17.00;99.90;;;;;;4953521;28;20116;-70
2022/05/26 06:39:42;;;;;;;8.73;1.40;;;17.00;99.90;;;;;;4970136;28;20057;-70
2022/05/26 06:42:10;;;;;;;13.48;1.42;;;17.10;99.90;;;;;;4954629;28;20079;-70
2022/05/26 06:44:40;;;;;;;9.70;1.40;;;17.40;99.90;;;;;;4954493;28;20065;-71
2022/05/26 06:47:12;;;;;;;8.88;1.45;;;17.30;99.90;;;;;;4946338;28;20059;-72
2022/05/26 06:49:39;;;;;;;6.50;1.27;;;17.20;99.90;;;;;;4952592;28;20054;-70
2022/05/26 06:52:06;;;;;;;9.43;1.65;;;17.10;99.90;;;;;;4945589;28;20047;-71
2022/05/26 06:54:36;;;;;;;10.35;1.40;;;16.90;99.90;;;;;;4943370;28;20058;-70
2022/05/26 06:57:03;;;;;;;9.10;1.75;;;16.60;99.90;;;;;;4954956;28;20692;-70
2022/05/26 06:59:29;;;;;;;8.15;1.40;;;16.40;99.90;;;;;;4965350;28;20578;-70
2022/05/26 07:01:54;;;;;;;10.00;1.60;;;16.30;99.90;;;;;;4935932;28;20038;-71
2022/05/26 07:04:21;;;;;;;8.55;1.45;;;16.30;99.90;;;;;;4930686;28;20046;-69
2022/05/26 07:06:52;;;;;;;8.93;1.90;;;16.50;99.90;;;;;;4963888;28;20070;-70
2022/05/26 07:09:38;;;;;;;10.35;1.65;;;16.60;99.90;;;;;;4952234;28;20083;-71
2022/05/26 07:12:11;;;;;;;8.75;1.35;;;16.90;99.90;;;;;;4952925;28;20054;-70
2022/05/26 07:14:38;;;;;;;8.70;1.88;;;17.00;99.90;;;;;;4936858;28;20512;-71
2022/05/26 07:17:04;;;;;;;11.60;1.73;;;17.20;99.90;;;;;;4955124;28;20051;-70
2022/05/26 07:19:34;;;;;;;10.45;1.58;;;17.20;99.90;;;;;;4952276;28;20424;-70
2022/05/26 07:22:00;;;;;;;8.60;1.65;;;17.10;99.90;;;;;;4954090;28;20122;-71
2022/05/26 07:24:26;;;;;;;6.53;1.30;;;17.00;99.90;;;;;;4957025;28;20039;-70
2022/05/26 07:26:52;;;;;;;10.10;2.47;;;16.80;99.90;;;;;;4959893;28;20495;-71
2022/05/26 07:29:18;;;;;;;8.05;1.58;;;16.70;99.90;;;;;;4971390;28;20101;-71
2022/05/26 07:31:44;;;;;;;9.32;1.50;;;16.70;99.90;;;;;;4958623;28;20043;-70
2022/05/26 07:34:11;;;;;;;5.78;1.05;;;16.70;99.90;;;;;;4966105;28;20145;-71
2022/05/26 07:42:11;;;;;;;13.07;1.92;;;16.50;99.90;;;;;;4954430;28;20188;-70
2022/05/26 07:44:40;;;;;;;10.25;1.27;;;16.60;99.90;;;;;;4957675;28;20109;-70
2022/05/26 07:47:08;;;;;;;6.90;1.52;;;16.70;99.90;;;;;;4957608;28;20054;-71
2022/05/26 07:49:38;;;;;;;9.45;1.20;;;16.80;99.90;;;;;;4946297;28;20416;-70
2022/05/26 07:52:05;;;;;;;9.00;1.40;;;17.10;99.90;;;;;;4955626;28;20535;-71
2022/05/26 07:54:31;;;;;;;7.85;1.52;;;17.30;99.90;;;;;;4951958;28;20043;-70
2022/05/26 07:56:58;;;;;;;8.75;1.70;;;17.60;99.90;;;;;;4941452;28;20400;-70
2022/05/26 07:59:24;;;;;;;11.50;1.60;;;17.90;99.90;;;;;;4945396;28;20039;-69
2022/05/26 08:01:50;;;;;;;9.55;1.63;;;18.00;99.90;;;;;;4931804;28;20042;-71
2022/05/26 08:04:17;;;;;;;8.60;1.60;;;18.10;99.90;;;;;;4953982;28;20046;-72
2022/05/26 08:06:47;;;;;;;13.35;1.88;;;18.20;99.90;;;;;;4953063;28;20054;-70
2022/05/26 08:09:27;;;;;;;10.27;1.40;;;18.30;99.90;;;;;;4948569;28;20100;-72
2022/05/26 08:12:00;;;;;;;9.20;1.60;;;18.60;99.90;;;;;;4950242;28;20058;-72
2022/05/26 08:14:26;;;;;;;9.68;1.60;;;18.70;99.90;;;;;;4968725;28;20106;-71
2022/05/26 08:16:52;;;;;;;9.23;1.33;;;18.60;99.90;;;;;;4953011;28;20428;-72
2022/05/26 08:19:18;;;;;;;13.00;1.70;;;18.60;99.90;;;;;;4950427;28;20604;-70
2022/05/26 08:21:43;;;;;;;8.98;1.60;;;18.50;99.90;;;;;;4947131;28;20385;-70
2022/05/26 08:24:09;;;;;;;15.73;2.38;;;18.40;99.90;;;;;;4946386;28;20129;-70
2022/05/26 08:26:35;;;;;;;6.10;1.00;;;18.30;99.90;;;;;;4951383;28;20140;-70
2022/05/26 08:29:00;;;;;;;11.35;1.73;;;18.20;99.90;;;;;;4951931;28;20419;-70
2022/05/26 08:31:26;;;;;;;8.45;1.40;;;18.20;99.90;;;;;;4949392;28;20503;-70
2022/05/26 08:33:52;;;;;;;9.95;1.80;;;18.20;99.90;;;;;;4956912;28;20043;-70
2022/05/26 08:36:24;;;;;;;9.73;1.50;;;18.20;99.90;;;;;;4953625;28;21284;-70
2022/05/26 08:38:50;;;;;;;6.32;1.40;;;18.20;99.90;;;;;;4949628;28;20098;-70
2022/05/26 08:41:30;;;;;;;8.07;1.40;;;18.30;99.90;;;;;;4956053;28;20059;-71
2022/05/26 08:44:11;;;;;;;8.57;2.00;;;18.40;99.90;;;;;;4950788;28;20050;-71
2022/05/26 08:46:50;;;;;;;8.10;1.70;;;18.60;99.90;;;;;;4949687;28;21663;-71
2022/05/26 08:49:28;;;;;;;6.45;1.52;;;18.90;99.90;;;;;;4970561;28;20047;-70
2022/05/26 08:52:13;;;;;;;9.27;1.42;;;19.10;99.90;;;;;;4946911;28;20831;-70
2022/05/26 08:54:52;;;;;;;6.25;1.08;;;19.30;99.90;;;;;;4945852;28;21930;-69
2022/05/26 08:57:23;;;;;;;7.60;1.35;;;19.70;99.90;;;;;;4956121;28;20492;-72
2022/05/26 08:59:49;;;;;;;8.43;1.50;;;20.20;99.90;;;;;;4955436;28;20145;-71
2022/05/26 09:02:34;;;;;;;6.47;1.45;;;20.30;99.90;;;;;;4933233;28;20129;-71
2022/05/26 09:05:07;;;;;;;7.40;1.35;;;20.40;99.90;;;;;;4949324;28;20141;-71
2022/05/26 09:13:32;;;;;;;6.38;1.40;;;20.60;99.90;;;;;;4956412;28;21346;-70
2022/05/26 09:16:06;;;;;;;5.38;1.10;;;20.80;99.90;;;;;;4968940;28;20046;-71
2022/05/26 09:18:32;;;;;;;6.75;1.20;;;20.90;99.90;;;;;;4955362;28;20042;-71
2022/05/26 09:21:24;;;;;;;8.10;1.45;;;21.00;99.90;;;;;;4947463;28;20101;-70
2022/05/26 09:23:50;;;;;;;9.07;1.38;;;21.20;99.90;;;;;;4944740;28;20531;-72
2022/05/26 09:26:22;;;;;;;3.80;0.93;;;21.20;99.90;;;;;;4942519;28;20043;-69
2022/05/26 09:28:51;;;;;;;6.85;1.30;;;21.40;99.90;;;;;;4945415;23;20141;-72
2022/05/26 09:31:33;;;;;;;6.15;1.38;;;21.60;99.90;;;;;;4949838;28;20055;-72
2022/05/26 09:34:14;;;;;;;5.50;0.77;;;21.80;99.90;;;;;;4953113;28;20043;-71
2022/05/26 09:36:53;;;;;;;5.63;0.80;;;21.60;99.90;;;;;;4952094;28;20133;-72
2022/05/26 09:39:38;;;;;;;5.28;1.10;;;21.60;99.90;;;;;;4923916;28;20055;-71
2022/05/26 09:42:15;;;;;;;7.28;1.08;;;21.50;99.60;;;;;;4966774;28;20043;-71
2022/05/26 09:44:49;;;;;;;5.68;1.33;;;21.60;99.90;;;;;;4960051;28;20047;-72
2022/05/26 09:47:28;;;;;;;7.65;1.10;;;21.50;99.50;;;;;;4948098;28;20051;-71
2022/05/26 09:49:57;;;;;;;5.13;0.88;;;21.60;99.50;;;;;;4937118;28;20101;-71
2022/05/26 09:52:28;;;;;;;6.18;1.20;;;21.60;99.10;;;;;;4911990;28;20051;-72
2022/05/26 09:55:05;;;;;;;6.30;1.00;;;21.60;98.30;;;;;;4945161;28;20415;-71
2022/05/26 09:57:31;;;;;;;4.88;1.08;;;21.20;97.50;;;;;;4957372;28;20062;-70
2022/05/26 09:59:57;;;;;;;5.07;0.90;;;21.00;99.90;;;;;;4956386;28;20261;-71
2022/05/26 10:02:40;;;;;;;4.32;0.90;;;21.00;99.30;;;;;;4956643;28;20054;-72
2022/05/26 10:05:28;;;;;;;4.82;1.10;;;21.20;99.90;;;;;;4948680;28;20135;-71
2022/05/26 10:08:03;;;;;;;5.68;1.08;;;21.00;99.90;;;;;;4950651;28;20775;-71
2022/05/26 10:10:39;;;;;;;5.13;1.15;;;20.70;98.40;;;;;;4956103;28;20106;-71
2022/05/26 10:13:13;;;;;;;6.65;1.35;;;20.40;99.90;;;;;;4954595;28;20421;-71
2022/05/26 10:15:45;;;;;;;6.45;1.08;;;20.10;99.90;;;;;;4934360;28;20054;-71
2022/05/26 10:18:41;;;;;;;4.82;0.88;;;19.70;99.90;;;;;;4954202;28;20062;-71
2022/05/26 10:21:14;;;;;;;5.07;1.20;;;19.60;99.90;;;;;;4952868;28;20054;-71
2022/05/26 10:24:11;;;;;;;5.63;1.27;;;19.90;99.90;;;;;;4939897;28;20575;-68
2022/05/26 10:27:03;;;;;;;9.45;1.13;;;20.50;99.90;;;;;;4956674;28;20211;-68
2022/05/26 10:29:35;;;;;;;3.83;0.80;;;21.00;99.90;;;;;;4976224;28;20186;-69
2022/05/26 10:32:25;;;;;;;5.25;1.20;;;21.20;99.90;;;;;;4958334;28;20578;-68
2022/05/26 10:35:12;;;;;;;7.27;1.17;;;21.20;99.90;;;;;;4954889;28;20495;-69
2022/05/26 10:37:50;;;;;;;5.25;1.05;;;20.90;99.90;;;;;;4956588;28;20054;-69
2022/05/26 10:40:24;;;;;;;8.27;1.80;;;20.70;99.90;;;;;;4954948;28;20042;-68
2022/05/26 10:42:57;;;;;;;7.53;1.50;;;20.50;99.90;;;;;;4967542;28;20133;-68
2022/05/26 10:45:47;;;;;;;6.00;1.05;;;20.40;99.90;;;;;;4955453;28;20063;-68
2022/05/26 10:48:21;;;;;;;4.75;1.30;;;20.40;99.90;;;;;;4975624;28;20089;-69
2022/05/26 10:50:58;;;;;;;8.43;1.88;;;20.10;99.90;;;;;;4963850;28;20073;-69
2022/05/26 10:53:36;;;;;;;5.93;1.08;;;20.00;99.90;;;;;;4944622;28;20122;-69
2022/05/26 10:56:28;;;;;;;6.38;1.02;;;20.10;99.90;;;;;;4972303;28;20043;-69
2022/05/26 10:59:01;;;;;;;9.07;1.25;;;20.50;99.90;;;;;;4946546;28;20853;-70
2022/05/26 11:01:40;;;;;;;5.22;1.27;;;20.70;99.90;;;;;;4954314;28;20504;-69
2022/05/26 11:04:31;;;;;;;6.70;1.10;;;20.70;99.90;;;;;;4955379;28;20054;-69
2022/05/26 11:07:03;;;;;;;10.00;1.33;;;20.50;99.90;;;;;;4953138;28;20134;-69
2022/05/26 11:09:38;;;;;;;7.78;1.05;;;20.20;99.90;;;;;;4951113;28;20051;-69
2022/05/26 11:12:14;;;;;;;6.78;1.30;;;20.20;99.90;;;;;;4933038;28;20074;-69
2022/05/26 11:17:56;;;;;;;5.80;1.30;;;20.10;99.90;;;;;;4974978;28;20112;-69
2022/05/26 11:20:37;;;;;;;7.38;1.35;;;20.20;99.90;;;;;;4957952;28;20771;-69
2022/05/26 11:23:03;;;;;;;6.93;1.20;;;20.60;99.90;;;;;;4956884;28;20051;-69
2022/05/26 11:25:37;;;;;;;8.77;1.95;;;20.80;99.90;;;;;;4958194;28;20043;-69
2022/05/26 11:28:22;;;;;;;7.45;1.55;;;20.90;99.90;;;;;;4956581;28;20081;-69
2022/05/26 11:36:50;;;;;;;8.95;1.60;;;20.90;99.90;;;;;;4970606;28;20058;-71
2022/05/26 11:39:29;;;;;;;8.40;1.55;;;20.80;99.90;;;;;;4955709;28;20046;-69
2022/05/26 11:42:08;;;;;;;9.80;1.80;;;20.80;99.90;;;;;;4959537;28;20043;-68
2022/05/26 11:44:42;;;;;;;6.07;1.30;;;20.90;99.90;;;;;;4959174;28;20043;-69
2022/05/26 11:47:26;;;;;;;9.32;1.58;;;21.10;99.90;;;;;;4961506;28;20424;-70
2022/05/26 11:49:52;;;;;;;7.85;1.40;;;21.20;99.90;;;;;;4960390;28;20043;-71
2022/05/26 11:52:25;;;;;;;8.13;1.55;;;21.30;99.90;;;;;;4960931;28;20062;-73
2022/05/26 11:54:55;;;;;;;8.25;1.40;;;21.50;99.90;;;;;;4945731;28;20051;-72
2022/05/26 11:57:40;;;;;;;6.22;1.20;;;21.40;99.90;;;;;;4955429;28;20700;-71
2022/05/26 12:00:15;;;;;;;7.70;1.70;;;21.20;99.90;;;;;;4956280;28;20098;-72
2022/05/26 12:02:45;;;;;;;6.72;1.35;;;21.10;99.90;;;;;;4942118;28;20034;-70
2022/05/26 12:05:36;;;;;;;7.15;1.13;;;21.10;99.90;;;;;;4956400;28;21841;-71
2022/05/26 12:08:06;;;;;;;7.32;1.35;;;21.00;99.90;;;;;;4953144;28;20117;-70
2022/05/26 12:10:40;;;;;;;8.77;1.77;;;21.00;99.90;;;;;;4955819;28;20522;-69
2022/05/26 12:13:24;;;;;;;8.07;1.40;;;20.80;99.90;;;;;;4940215;28;20074;-68
2022/05/26 12:16:04;;;;;;;8.77;1.50;;;20.90;99.90;;;;;;4957600;28;20405;-67
2022/05/26 12:18:49;;;;;;;7.38;1.45;;;20.70;99.90;;;;;;4954966;28;20097;-69
2022/05/26 12:21:44;;;;;;;9.18;1.55;;;20.50;99.90;;;;;;4957986;28;20054;-70
2022/05/26 12:24:32;;;;;;;11.45;1.98;;;20.30;99.90;;;;;;4985905;28;20058;-69
2022/05/26 12:26:59;;;;;;;8.60;2.30;;;20.10;99.90;;;;;;4957372;28;20061;-71
2022/05/26 12:29:46;;;;;;;9.32;1.77;;;20.00;99.90;;;;;;4972175;28;20139;-69
2022/05/26 12:32:25;;;;;;;10.90;1.98;;;20.00;99.90;;;;;;4961982;28;20074;-68
2022/05/26 12:35:34;;;;;;;10.27;1.65;;;20.10;99.90;;;;;;4965212;28;20054;-69
2022/05/26 12:38:37;;;;;;;8.80;1.67;;;19.80;99.90;;;;;;4927746;28;20042;-74
2022/05/26 12:41:22;;;;;;;8.13;1.80;;;19.80;99.90;;;;;;4960886;28;20523;-73
2022/05/26 12:43:53;;;;;;;7.40;1.25;;;19.80;99.90;;;;;;4976726;28;20133;-72
2022/05/26 12:46:23;;;;;;;6.50;1.20;;;19.70;99.90;;;;;;4976535;28;20112;-73
2022/05/26 12:49:24;;;;;;;8.23;1.52;;;19.40;99.90;;;;;;4967688;28;20075;-73
2022/05/26 12:52:31;;;;;;;9.57;1.45;;;19.20;99.90;;;;;;4946566;28;20082;-72
2022/05/26 12:55:38;;;;;;;11.48;1.85;;;19.20;99.90;;;;;;4943199;28;20046;-73
2022/05/26 12:58:17;;;;;;;7.00;1.38;;;19.20;99.90;;;;;;4902139;29;20052;-73
2022/05/26 13:00:56;;;;;;;9.50;1.35;;;19.10;99.90;;;;;;4900487;29;20111;-69
2022/05/26 13:03:48;;;;;;;7.78;1.67;;;18.80;99.90;;;;;;4933885;28;20444;-71
2022/05/26 13:06:28;;;;;;;6.45;1.40;;;18.80;99.90;;;;;;4963275;28;20498;-69
2022/05/26 13:09:12;;;;;;;8.13;1.20;;;19.10;99.90;;;;;;4962612;28;20038;-69
2022/05/26 13:12:00;;;;;;;10.10;1.40;;;19.20;99.90;;;;;;4976453;28;20527;-68
2022/05/26 13:14:51;;;;;;;8.30;1.35;;;19.20;99.90;;;;;;4957642;28;20043;-70
2022/05/26 13:17:26;;;;;;;8.48;1.58;;;19.10;99.90;;;;;;4963198;28;20046;-71
2022/05/26 13:20:00;;;;;;;7.03;1.42;;;19.10;99.90;;;;;;4959171;28;20077;-71
2022/05/26 13:22:44;;;;;;;7.80;1.65;;;19.10;99.90;;;;;;4944017;28;20050;-71
2022/05/26 13:25:09;;;;;;;7.28;1.60;;;19.00;99.90;;;;;;4963012;28;20047;-70
2022/05/26 13:28:02;;;;;;;7.07;1.42;;;19.10;99.90;;;;;;4961726;28;20039;-71
2022/05/26 13:33:22;;;;;;;;;;;19.20;99.90;;;;;;4960260;28;20043;-71
2022/05/26 13:35:59;;;;;;;8.48;1.40;;;19.30;99.90;;;;;;4960719;28;19930;-72
2022/05/26 13:38:33;;;;;;;8.00;1.70;;;19.30;99.90;;;;;;4961537;28;20046;-72
2022/05/26 13:41:01;;;;;;;8.77;1.77;;;19.30;99.90;;;;;;4959266;28;20034;-71
2022/05/26 13:43:28;;;;;;;12.90;1.95;;;19.20;99.90;;;;;;4959076;28;20136;-71
2022/05/26 13:45:54;;;;;;;9.88;1.77;;;19.30;99.90;;;;;;4958895;28;20126;-71
2022/05/26 13:48:26;;;;;;;8.52;1.90;;;19.30;99.90;;;;;;4946966;28;20069;-73
2022/05/26 13:50:55;;;;;;;10.30;1.60;;;19.30;99.90;;;;;;4960526;28;20062;-71
2022/05/26 13:53:21;;;;;;;6.78;1.40;;;19.40;99.90;;;;;;4963673;28;20035;-71
2022/05/26 13:55:49;;;;;;;9.43;1.75;;;19.20;99.90;;;;;;4960371;28;20536;-70